createdAt,value
2019-03-24T00:01:59.499Z,5.91
2019-03-24T00:04:29.234Z,5.78
2019-03-24T00:06:58.983Z,5.71
2019-03-24T00:09:28.742Z,5.67
2019-03-24T00:11:58.669Z,5.65
2019-03-24T00:14:28.376Z,5.61
2019-03-24T00:16:58.291Z,5.62
2019-03-24T00:19:28.045Z,5.56
2019-03-24T00:21:57.925Z,5.55
2019-03-24T00:24:27.709Z,5.53
2019-03-24T00:26:57.507Z,5.48
2019-03-24T00:29:27.209Z,5.45
2019-03-24T00:31:57.112Z,5.40
2019-03-24T00:34:26.875Z,5.32
2019-03-24T00:36:56.655Z,5.40
2019-03-24T00:39:26.327Z,5.41
2019-03-24T00:41:56.302Z,5.29
2019-03-24T00:44:26.034Z,5.15
2019-03-24T00:46:55.693Z,5.10
2019-03-24T00:49:25.618Z,5.04
2019-03-24T00:51:55.347Z,5.09
2019-03-24T00:54:25.035Z,5.15
2019-03-24T00:56:54.772Z,5.19
2019-03-24T00:59:24.547Z,5.21
2019-03-24T01:01:54.319Z,5.22
2019-03-24T01:04:24.037Z,5.16
2019-03-24T01:06:54.172Z,5.08
2019-03-24T01:09:23.927Z,5.01
2019-03-24T01:11:53.727Z,4.94
2019-03-24T01:14:24.320Z,4.90
2019-03-24T01:16:54.172Z,4.87
2019-03-24T01:19:23.928Z,4.81
2019-03-24T01:21:53.719Z,4.86
2019-03-24T01:24:23.427Z,4.90
2019-03-24T01:26:53.222Z,4.89
2019-03-24T01:29:23.230Z,4.87
2019-03-24T01:31:52.894Z,4.92
2019-03-24T01:34:22.604Z,4.96
2019-03-24T01:36:52.260Z,4.86
2019-03-24T01:39:21.996Z,4.83
2019-03-24T01:41:51.859Z,4.87
2019-03-24T01:44:21.613Z,4.75
2019-03-24T01:46:51.553Z,4.61
2019-03-24T01:49:21.363Z,4.50
2019-03-24T01:51:51.105Z,4.37
2019-03-24T01:54:20.827Z,4.28
2019-03-24T01:56:50.599Z,4.21
2019-03-24T01:59:20.305Z,4.21
2019-03-24T02:01:50.026Z,4.20
2019-03-24T02:04:19.712Z,4.20
2019-03-24T02:06:49.391Z,4.29
2019-03-24T02:09:19.048Z,4.44
2019-03-24T02:11:50.803Z,4.49
2019-03-24T02:14:20.251Z,4.46
2019-03-24T02:16:49.958Z,4.52
2019-03-24T02:19:19.723Z,4.51
2019-03-24T02:21:49.442Z,4.47
2019-03-24T02:24:19.138Z,4.46
2019-03-24T02:26:48.833Z,4.44
2019-03-24T02:29:18.926Z,4.30
2019-03-24T02:31:48.603Z,4.12
2019-03-24T02:34:18.313Z,4.01
2019-03-24T02:36:48.061Z,4.04
2019-03-24T02:39:17.740Z,4.07
2019-03-24T02:41:47.484Z,4.03
2019-03-24T02:44:17.129Z,3.91
2019-03-24T02:46:46.838Z,3.82
2019-03-24T02:49:16.510Z,3.89
2019-03-24T02:51:46.224Z,3.99
2019-03-24T02:54:15.896Z,4.04
2019-03-24T02:56:45.991Z,4.03
2019-03-24T02:59:15.683Z,4.01
2019-03-24T03:01:45.407Z,3.94
2019-03-24T03:04:15.305Z,3.86
2019-03-24T03:06:45.011Z,3.84
2019-03-24T03:09:14.719Z,3.85
2019-03-24T03:11:44.429Z,3.84
2019-03-24T03:14:14.292Z,3.75
2019-03-24T03:16:44.014Z,3.62
2019-03-24T03:19:13.877Z,3.49
2019-03-24T03:21:43.594Z,3.42
2019-03-24T03:24:13.500Z,3.50
2019-03-24T03:26:43.198Z,3.51
2019-03-24T03:29:12.921Z,3.46
2019-03-24T03:31:42.930Z,3.35
2019-03-24T03:34:13.101Z,3.31
2019-03-24T03:36:42.786Z,3.37
2019-03-24T03:39:12.734Z,3.29
2019-03-24T03:41:42.481Z,3.20
2019-03-24T03:44:12.187Z,3.16
2019-03-24T03:46:51.820Z,3.17
2019-03-24T03:49:13.550Z,3.22
2019-03-24T03:51:43.448Z,3.21
2019-03-24T03:54:13.391Z,3.10
2019-03-24T03:56:43.020Z,3.07
2019-03-24T03:59:12.717Z,3.02
2019-03-24T04:01:42.529Z,2.97
2019-03-24T04:04:12.234Z,2.94
2019-03-24T04:06:41.897Z,2.91
2019-03-24T04:09:11.616Z,2.88
2019-03-24T04:11:41.286Z,2.86
2019-03-24T04:14:11.004Z,2.88
2019-03-24T04:16:40.673Z,2.98
2019-03-24T04:19:10.412Z,3.09
2019-03-24T04:21:40.116Z,3.16
2019-03-24T04:24:09.815Z,3.14
2019-03-24T04:26:39.713Z,3.04
2019-03-24T04:29:09.371Z,2.94
2019-03-24T04:31:39.060Z,2.84
2019-03-24T04:34:08.863Z,2.80
2019-03-24T04:36:38.527Z,2.84
2019-03-24T04:39:08.292Z,2.85
2019-03-24T04:41:38.102Z,2.78
2019-03-24T04:44:07.793Z,2.76
2019-03-24T04:46:37.465Z,2.69
2019-03-24T04:49:07.176Z,2.65
2019-03-24T04:51:36.871Z,2.70
2019-03-24T04:54:06.535Z,2.83
2019-03-24T04:56:36.262Z,2.93
2019-03-24T04:59:05.991Z,3.02
2019-03-24T05:01:35.668Z,2.95
2019-03-24T05:04:05.361Z,2.82
2019-03-24T05:06:35.344Z,2.74
2019-03-24T05:09:05.389Z,2.65
2019-03-24T05:11:35.123Z,2.59
2019-03-24T05:14:04.822Z,2.52
2019-03-24T05:16:34.585Z,2.50
2019-03-24T05:19:04.251Z,2.53
2019-03-24T05:21:34.126Z,2.62
2019-03-24T05:24:04.292Z,2.71
2019-03-24T05:26:34.074Z,2.75
2019-03-24T05:29:03.744Z,2.72
2019-03-24T05:31:33.461Z,2.67
2019-03-24T05:34:03.144Z,2.64
2019-03-24T05:36:32.851Z,2.63
2019-03-24T05:39:02.530Z,2.71
2019-03-24T05:41:32.360Z,2.84
2019-03-24T05:44:02.001Z,2.87
2019-03-24T05:46:34.236Z,2.88
2019-03-24T05:49:03.936Z,2.90
2019-03-24T05:51:33.666Z,2.87
2019-03-24T05:54:03.338Z,2.95
2019-03-24T05:56:33.071Z,3.05
2019-03-24T05:59:02.823Z,3.11
2019-03-24T06:01:32.515Z,3.20
2019-03-24T06:04:02.190Z,3.29
2019-03-24T06:06:31.906Z,3.38
2019-03-24T06:09:01.585Z,3.50
2019-03-24T06:11:31.290Z,3.60
2019-03-24T06:14:00.984Z,3.69
2019-03-24T06:16:30.654Z,3.78
2019-03-24T06:19:00.641Z,3.78
2019-03-24T06:21:30.335Z,3.85
2019-03-24T06:24:00.075Z,3.86
2019-03-24T06:26:29.873Z,3.97
2019-03-24T06:28:59.588Z,4.08
2019-03-24T06:31:29.559Z,4.14
2019-03-24T06:33:59.283Z,4.05
2019-03-24T06:36:29.125Z,4.10
2019-03-24T06:38:58.855Z,4.20
2019-03-24T06:41:28.742Z,4.27
2019-03-24T06:43:58.427Z,4.32
2019-03-24T06:46:28.310Z,4.40
2019-03-24T06:48:58.068Z,4.53
2019-03-24T06:51:28.226Z,4.75
2019-03-24T06:53:57.930Z,4.86
2019-03-24T06:56:27.699Z,4.95
2019-03-24T06:58:57.385Z,5.06
2019-03-24T07:01:27.077Z,5.10
2019-03-24T07:03:56.837Z,5.30
2019-03-24T07:06:26.565Z,5.68
2019-03-24T07:08:56.258Z,6.10
2019-03-24T07:11:26.085Z,6.31
2019-03-24T07:13:55.792Z,6.50
2019-03-24T07:16:25.744Z,6.72
2019-03-24T07:18:55.500Z,7.00
2019-03-24T07:21:25.244Z,6.98
2019-03-24T07:23:55.043Z,7.01
2019-03-24T07:26:24.753Z,7.15
2019-03-24T07:28:54.465Z,7.24
2019-03-24T07:31:24.264Z,7.38
2019-03-24T07:33:53.988Z,7.51
2019-03-24T07:36:23.755Z,7.99
2019-03-24T07:38:53.450Z,8.42
2019-03-24T07:41:23.172Z,8.98
2019-03-24T07:43:52.871Z,9.31
2019-03-24T07:46:22.575Z,9.62
2019-03-24T07:48:52.255Z,9.79
2019-03-24T07:51:21.981Z,9.97
2019-03-24T07:53:51.671Z,10.21
2019-03-24T07:56:21.398Z,10.33
2019-03-24T07:58:51.111Z,10.58
2019-03-24T08:01:20.873Z,10.79
2019-03-24T08:03:50.712Z,11.15
2019-03-24T08:06:20.417Z,11.42
2019-03-24T08:08:50.148Z,11.63
2019-03-24T08:11:19.863Z,11.87
2019-03-24T08:13:54.071Z,11.64
2019-03-24T08:16:21.036Z,12.00
2019-03-24T08:18:50.806Z,12.19
2019-03-24T08:21:21.260Z,12.16
2019-03-24T08:23:51.014Z,12.39
2019-03-24T08:26:20.754Z,12.57
2019-03-24T08:28:50.512Z,12.93
2019-03-24T08:31:20.216Z,13.45
2019-03-24T08:33:49.956Z,13.76
2019-03-24T08:36:19.721Z,13.58
2019-03-24T08:38:49.601Z,13.79
2019-03-24T08:41:19.358Z,14.49
2019-03-24T08:43:49.138Z,14.74
2019-03-24T08:46:18.870Z,15.82
2019-03-24T08:48:48.632Z,16.88
2019-03-24T08:51:18.357Z,17.35
2019-03-24T08:53:48.123Z,17.65
2019-03-24T08:56:17.901Z,18.37
2019-03-24T08:58:47.628Z,17.44
2019-03-24T09:01:17.378Z,17.27
2019-03-24T09:03:47.090Z,17.61
2019-03-24T09:06:16.937Z,17.07
2019-03-24T09:08:49.149Z,18.31
2019-03-24T09:11:18.841Z,18.16
2019-03-24T09:13:48.592Z,17.23
2019-03-24T09:16:18.362Z,16.90
2019-03-24T09:18:52.789Z,17.10
2019-03-24T09:21:20.238Z,17.32
2019-03-24T09:23:49.999Z,15.97
2019-03-24T09:26:19.896Z,17.65
2019-03-24T09:28:49.579Z,18.87
2019-03-24T09:31:19.329Z,17.94
2019-03-24T09:33:49.202Z,17.79
2019-03-24T09:36:18.991Z,17.03
2019-03-24T09:38:48.693Z,16.84
2019-03-24T09:41:18.527Z,17.16
2019-03-24T09:43:48.268Z,17.69
2019-03-24T09:46:19.093Z,16.16
2019-03-24T09:48:48.864Z,16.18
2019-03-24T09:51:21.043Z,15.77
2019-03-24T09:53:50.090Z,15.33
2019-03-24T09:56:19.938Z,16.04
2019-03-24T09:58:49.749Z,16.80
2019-03-24T10:01:19.684Z,16.01
2019-03-24T10:03:49.507Z,15.84
2019-03-24T10:06:19.340Z,16.26
2019-03-24T10:08:49.170Z,16.79
2019-03-24T10:11:19.239Z,17.65
2019-03-24T10:13:49.113Z,17.99
2019-03-24T10:16:18.845Z,18.01
2019-03-24T10:18:48.753Z,17.32
2019-03-24T10:21:18.507Z,18.06
2019-03-24T10:23:48.403Z,17.87
2019-03-24T10:26:18.179Z,16.82
2019-03-24T10:28:47.957Z,18.07
2019-03-24T10:31:17.873Z,16.73
2019-03-24T10:33:47.665Z,17.08
2019-03-24T10:36:17.433Z,17.66
2019-03-24T10:38:47.753Z,16.77
2019-03-24T10:41:17.468Z,17.84
2019-03-24T10:43:47.402Z,18.57
2019-03-24T10:46:17.269Z,18.44
2019-03-24T10:48:48.106Z,18.52
2019-03-24T10:51:17.896Z,18.22
2019-03-24T10:53:48.805Z,18.54
2019-03-24T10:56:18.533Z,18.54
2019-03-24T10:58:48.656Z,18.28
2019-03-24T11:01:18.682Z,18.55
2019-03-24T11:03:48.666Z,17.60
2019-03-24T11:06:18.419Z,17.98
2019-03-24T11:08:48.185Z,15.96
2019-03-24T11:11:17.984Z,16.42
2019-03-24T11:13:47.798Z,16.42
2019-03-24T11:16:17.711Z,15.90
2019-03-24T11:18:47.489Z,15.82
2019-03-24T11:21:17.373Z,17.23
2019-03-24T11:23:48.099Z,17.48
2019-03-24T11:26:18.026Z,16.65
2019-03-24T11:28:47.817Z,18.01
2019-03-24T11:31:17.584Z,17.85
2019-03-24T11:33:47.331Z,17.24
2019-03-24T11:36:17.183Z,15.80
2019-03-24T11:38:47.006Z,16.37
2019-03-24T11:41:16.737Z,17.21
2019-03-24T11:43:46.529Z,16.81
2019-03-24T11:46:16.299Z,16.78
2019-03-24T11:48:46.086Z,17.33
2019-03-24T11:51:15.893Z,17.84
2019-03-24T11:53:45.948Z,18.83
2019-03-24T11:56:15.761Z,19.36
2019-03-24T11:58:45.637Z,18.86
2019-03-24T12:01:15.496Z,17.06
2019-03-24T12:03:45.317Z,17.43
2019-03-24T12:06:15.223Z,17.51
2019-03-24T12:08:45.071Z,17.16
2019-03-24T12:11:14.858Z,17.23
2019-03-24T12:13:44.556Z,17.26
2019-03-24T12:16:14.370Z,18.05
2019-03-24T12:18:44.064Z,17.63
2019-03-24T12:21:13.860Z,16.53
2019-03-24T12:23:44.610Z,16.53
2019-03-24T12:26:14.731Z,16.97
2019-03-24T12:28:44.697Z,16.92
2019-03-24T12:31:14.498Z,18.00
2019-03-24T12:33:44.239Z,18.73
2019-03-24T12:36:14.050Z,18.02
2019-03-24T12:38:43.802Z,18.19
2019-03-24T12:41:13.620Z,18.69
2019-03-24T12:43:43.461Z,17.94
2019-03-24T12:46:13.597Z,17.49
2019-03-24T12:48:43.796Z,17.83
2019-03-24T12:51:13.709Z,18.37
2019-03-24T12:53:43.584Z,17.61
2019-03-24T12:56:13.429Z,17.30
2019-03-24T12:58:43.172Z,17.06
2019-03-24T13:01:12.944Z,18.04
2019-03-24T13:03:42.757Z,17.83
2019-03-24T13:06:12.504Z,17.14
2019-03-24T13:08:42.267Z,17.53
2019-03-24T13:11:12.099Z,17.56
2019-03-24T13:13:42.113Z,16.99
2019-03-24T13:16:12.002Z,17.74
2019-03-24T13:18:41.830Z,17.40
2019-03-24T13:21:11.607Z,18.08
2019-03-24T13:23:41.501Z,17.57
2019-03-24T13:26:11.302Z,17.27
2019-03-24T13:28:41.049Z,16.72
2019-03-24T13:31:10.757Z,17.02
2019-03-24T13:33:40.506Z,17.32
2019-03-24T13:36:14.295Z,17.28
2019-03-24T13:38:44.101Z,17.47
2019-03-24T13:41:13.846Z,16.46
2019-03-24T13:43:43.615Z,16.46
2019-03-24T13:46:13.334Z,16.72
2019-03-24T13:48:43.025Z,16.76
2019-03-24T13:51:12.756Z,17.08
2019-03-24T13:53:42.531Z,17.24
2019-03-24T13:56:12.328Z,17.16
2019-03-24T13:58:42.047Z,17.52
2019-03-24T14:01:12.426Z,16.66
2019-03-24T14:03:42.125Z,16.24
2019-03-24T14:06:11.888Z,16.26
2019-03-24T14:08:41.660Z,16.06
2019-03-24T14:11:11.382Z,16.30
2019-03-24T14:13:41.131Z,16.99
2019-03-24T14:16:11.216Z,16.65
2019-03-24T14:18:40.907Z,16.79
2019-03-24T14:21:10.614Z,16.68
2019-03-24T14:23:40.298Z,16.35
2019-03-24T14:26:10.024Z,16.35
2019-03-24T14:28:39.775Z,16.67
2019-03-24T14:31:09.504Z,16.26
2019-03-24T14:33:39.375Z,15.73
2019-03-24T14:36:09.252Z,16.04
2019-03-24T14:38:38.985Z,16.46
2019-03-24T14:41:08.723Z,16.29
2019-03-24T14:43:38.475Z,16.40
2019-03-24T14:46:08.188Z,16.09
2019-03-24T14:48:37.885Z,15.81
2019-03-24T14:51:07.659Z,15.90
2019-03-24T14:53:37.562Z,16.03
2019-03-24T14:56:07.325Z,15.95
2019-03-24T14:58:37.039Z,15.68
2019-03-24T15:01:06.757Z,15.75
2019-03-24T15:03:36.468Z,15.60
2019-03-24T15:06:06.492Z,16.11
2019-03-24T15:08:36.252Z,16.30
2019-03-24T15:11:06.134Z,15.95
2019-03-24T15:13:35.907Z,16.04
2019-03-24T15:16:05.681Z,16.12
2019-03-24T15:18:35.329Z,15.51
2019-03-24T15:21:06.102Z,15.58
2019-03-24T15:23:35.999Z,15.42
2019-03-24T15:26:05.770Z,15.20
2019-03-24T15:28:35.503Z,15.21
2019-03-24T15:31:05.306Z,15.43
2019-03-24T15:33:35.076Z,15.42
2019-03-24T15:36:04.838Z,15.29
2019-03-24T15:38:34.598Z,15.38
2019-03-24T15:41:04.375Z,15.29
2019-03-24T15:43:34.155Z,15.30
2019-03-24T15:46:03.969Z,14.97
2019-03-24T15:48:33.752Z,15.04
2019-03-24T15:51:03.504Z,15.04
2019-03-24T15:53:33.274Z,14.81
2019-03-24T15:56:03.056Z,14.86
2019-03-24T15:58:32.811Z,14.93
2019-03-24T16:01:02.631Z,14.86
2019-03-24T16:03:32.363Z,15.02
2019-03-24T16:06:02.135Z,14.93
2019-03-24T16:08:31.900Z,14.83
2019-03-24T16:11:01.634Z,14.80
2019-03-24T16:13:31.538Z,14.86
2019-03-24T16:16:01.300Z,14.78
2019-03-24T16:18:31.068Z,14.70
2019-03-24T16:21:00.857Z,14.72
2019-03-24T16:23:30.665Z,14.72
2019-03-24T16:26:00.643Z,14.61
2019-03-24T16:28:30.437Z,14.62
2019-03-24T16:31:00.282Z,14.79
2019-03-24T16:33:30.007Z,14.79
2019-03-24T16:35:59.758Z,14.69
2019-03-24T16:38:29.483Z,14.54
2019-03-24T16:40:59.299Z,14.50
2019-03-24T16:43:29.096Z,14.37
2019-03-24T16:45:58.813Z,14.21
2019-03-24T16:48:36.412Z,14.29
2019-03-24T16:51:00.098Z,14.34
2019-03-24T16:53:29.790Z,14.49
2019-03-24T16:55:59.538Z,14.27
2019-03-24T16:58:29.271Z,14.22
2019-03-24T17:00:59.196Z,14.10
2019-03-24T17:03:28.950Z,13.87
2019-03-24T17:05:58.779Z,13.70
2019-03-24T17:08:28.541Z,13.67
2019-03-24T17:10:58.356Z,13.56
2019-03-24T17:13:28.137Z,13.45
2019-03-24T17:15:57.870Z,13.33
2019-03-24T17:18:27.751Z,13.24
2019-03-24T17:20:57.658Z,13.24
2019-03-24T17:23:27.508Z,13.18
2019-03-24T17:25:57.366Z,13.20
2019-03-24T17:28:27.152Z,13.18
2019-03-24T17:30:57.035Z,13.17
2019-03-24T17:33:26.747Z,13.17
2019-03-24T17:35:56.571Z,13.15
2019-03-24T17:38:27.508Z,13.11
2019-03-24T17:40:57.344Z,13.08
2019-03-24T17:43:27.095Z,13.08
2019-03-24T17:45:56.869Z,13.04
2019-03-24T17:48:26.597Z,13.05
2019-03-24T17:50:56.772Z,13.05
2019-03-24T17:53:26.564Z,12.99
2019-03-24T17:55:56.315Z,12.97
2019-03-24T17:58:26.263Z,12.89
2019-03-24T18:00:57.198Z,12.88
2019-03-24T18:03:27.104Z,12.83
2019-03-24T18:05:59.491Z,12.78
2019-03-24T18:08:28.484Z,12.75
2019-03-24T18:10:58.430Z,12.70
2019-03-24T18:13:29.081Z,12.68
2019-03-24T18:15:58.823Z,12.58
2019-03-24T18:18:28.603Z,12.52
2019-03-24T18:20:58.653Z,12.50
2019-03-24T18:23:28.550Z,12.42
2019-03-24T18:25:58.498Z,12.34
2019-03-24T18:28:28.271Z,12.30
2019-03-24T18:30:58.089Z,12.23
2019-03-24T18:33:27.802Z,12.14
2019-03-24T18:35:57.590Z,12.05
2019-03-24T18:38:27.375Z,11.96
2019-03-24T18:40:58.367Z,11.88
2019-03-24T18:43:28.231Z,11.82
2019-03-24T18:45:58.005Z,11.74
2019-03-24T18:48:27.908Z,11.71
2019-03-24T18:50:58.028Z,11.66
2019-03-24T18:53:27.823Z,11.58
2019-03-24T18:55:57.667Z,11.55
2019-03-24T18:58:27.446Z,11.51
2019-03-24T19:00:57.539Z,11.46
2019-03-24T19:03:27.420Z,11.42
2019-03-24T19:05:57.173Z,11.29
2019-03-24T19:08:26.883Z,11.16
2019-03-24T19:10:56.636Z,11.06
2019-03-24T19:13:26.468Z,10.97
2019-03-24T19:15:56.347Z,10.82
2019-03-24T19:18:26.432Z,10.68
2019-03-24T19:20:56.220Z,10.62
2019-03-24T19:23:27.015Z,10.54
2019-03-24T19:25:56.898Z,10.47
2019-03-24T19:28:26.734Z,10.37
2019-03-24T19:30:56.495Z,10.32
2019-03-24T19:33:26.252Z,10.28
2019-03-24T19:35:56.122Z,10.27
2019-03-24T19:38:26.505Z,10.16
2019-03-24T19:40:56.327Z,10.09
2019-03-24T19:43:26.077Z,10.05
2019-03-24T19:45:55.982Z,10.00
2019-03-24T19:48:25.745Z,9.98
2019-03-24T19:50:55.520Z,9.93
2019-03-24T19:53:25.324Z,9.89
2019-03-24T19:55:55.102Z,9.81
2019-03-24T19:58:24.915Z,9.66
2019-03-24T20:00:54.681Z,9.69
2019-03-24T20:03:24.471Z,9.61
2019-03-24T20:05:54.239Z,9.54
2019-03-24T20:08:24.008Z,9.44
2019-03-24T20:10:53.742Z,9.33
2019-03-24T20:13:23.622Z,9.29
2019-03-24T20:15:53.369Z,9.29
2019-03-24T20:18:23.185Z,9.18
2019-03-24T20:20:52.958Z,9.08
2019-03-24T20:23:22.701Z,9.01
2019-03-24T20:25:53.830Z,9.00
2019-03-24T20:28:23.559Z,8.92
2019-03-24T20:30:53.274Z,8.85
2019-03-24T20:33:23.069Z,8.80
2019-03-24T20:35:52.787Z,8.71
2019-03-24T20:38:22.645Z,8.67
2019-03-24T20:40:52.372Z,8.63
2019-03-24T20:43:22.222Z,8.50
2019-03-24T20:45:51.933Z,8.52
2019-03-24T20:48:21.705Z,8.46
2019-03-24T20:50:51.458Z,8.41
2019-03-24T20:53:21.209Z,8.32
2019-03-24T20:55:50.956Z,8.33
2019-03-24T20:58:21.158Z,8.33
2019-03-24T21:00:51.058Z,8.34
2019-03-24T21:03:20.863Z,8.38
2019-03-24T21:05:50.874Z,8.49
2019-03-24T21:08:20.630Z,8.55
2019-03-24T21:10:51.394Z,8.65
2019-03-24T21:13:21.132Z,8.74
2019-03-24T21:15:50.937Z,8.83
2019-03-24T21:18:20.663Z,8.97
2019-03-24T21:20:50.401Z,9.11
2019-03-24T21:23:29.150Z,9.18
2019-03-24T21:25:51.877Z,9.22
2019-03-24T21:28:21.597Z,9.33
2019-03-24T21:30:51.330Z,9.38
2019-03-24T21:33:21.001Z,9.46
2019-03-24T21:35:50.780Z,9.54
2019-03-24T21:38:20.507Z,9.55
2019-03-24T21:40:50.245Z,9.62
2019-03-24T21:43:19.998Z,9.65
2019-03-24T21:45:49.742Z,9.69
2019-03-24T21:48:19.491Z,9.69
2019-03-24T21:50:49.195Z,9.68
2019-03-24T21:53:18.911Z,9.71
2019-03-24T21:55:48.678Z,9.67
2019-03-24T21:58:18.445Z,9.68
2019-03-24T22:00:48.162Z,9.67
2019-03-24T22:03:17.866Z,9.68
2019-03-24T22:05:47.618Z,9.68
2019-03-24T22:08:17.353Z,9.67
2019-03-24T22:10:47.053Z,9.65
2019-03-24T22:13:16.808Z,9.65
2019-03-24T22:15:46.501Z,9.63
2019-03-24T22:18:16.215Z,9.65
2019-03-24T22:20:49.171Z,9.59
2019-03-24T22:23:18.275Z,9.58
2019-03-24T22:25:47.972Z,9.60
2019-03-24T22:28:17.688Z,9.59
2019-03-24T22:30:47.428Z,9.58
2019-03-24T22:33:17.096Z,9.58
2019-03-24T22:35:47.225Z,9.55
2019-03-24T22:38:16.952Z,9.56
2019-03-24T22:40:46.658Z,9.56
2019-03-24T22:43:16.333Z,9.53
2019-03-24T22:45:46.041Z,9.51
2019-03-24T22:48:15.753Z,9.48
2019-03-24T22:50:45.483Z,9.44
2019-03-24T22:53:15.359Z,9.41
2019-03-24T22:55:45.075Z,9.42
2019-03-24T22:58:14.752Z,9.37
2019-03-24T23:00:54.665Z,9.39
2019-03-24T23:03:25.186Z,9.34
2019-03-24T23:05:55.317Z,9.35
2019-03-24T23:08:25.007Z,9.34
2019-03-24T23:10:54.738Z,9.32
2019-03-24T23:13:24.542Z,9.31
2019-03-24T23:15:54.248Z,9.28
2019-03-24T23:18:23.984Z,9.33
2019-03-24T23:20:53.712Z,9.28
2019-03-24T23:23:23.449Z,9.27
2019-03-24T23:25:53.117Z,9.20
2019-03-24T23:28:22.809Z,9.18
2019-03-24T23:30:52.528Z,9.18
2019-03-24T23:33:22.199Z,9.11
2019-03-24T23:35:51.885Z,9.12
2019-03-24T23:38:21.587Z,9.09
2019-03-24T23:40:51.274Z,9.00
2019-03-24T23:43:20.931Z,8.96
2019-03-24T23:45:50.606Z,8.96
2019-03-24T23:48:20.393Z,8.89
2019-03-24T23:50:50.119Z,8.81
2019-03-24T23:53:19.799Z,8.68
2019-03-24T23:55:49.411Z,8.60
2019-03-24T23:58:19.073Z,8.52
